sensor_id;sensor_type;location;lat;lon;timestamp;pressure;altitude;pressure_sealevel;temperature;humidity
13719;BME280;6931;51.100;17.068;2022-09-02T00:01:29;100655.97;;;17.91;62.20
13719;BME280;6931;51.100;17.068;2022-09-02T00:04:08;100652.09;;;17.85;62.58
13719;BME280;6931;51.100;17.068;2022-09-02T00:06:36;100646.97;;;17.80;62.00
13719;BME280;6931;51.100;17.068;2022-09-02T00:09:05;100646.81;;;17.87;61.67
13719;BME280;6931;51.100;17.068;2022-09-02T00:11:33;100644.78;;;17.87;61.43
13719;BME280;6931;51.100;17.068;2022-09-02T00:14:06;100642.84;;;17.84;61.10
13719;BME280;6931;51.100;17.068;2022-09-02T00:16:34;100646.31;;;17.92;61.06
13719;BME280;6931;51.100;17.068;2022-09-02T00:19:01;100645.66;;;17.84;61.34
13719;BME280;6931;51.100;17.068;2022-09-02T00:21:29;100647.59;;;17.87;61.33
13719;BME280;6931;51.100;17.068;2022-09-02T00:23:56;100646.13;;;17.99;61.58
13719;BME280;6931;51.100;17.068;2022-09-02T00:26:23;100649.28;;;17.85;61.56
13719;BME280;6931;51.100;17.068;2022-09-02T00:28:50;100648.31;;;17.91;61.54
13719;BME280;6931;51.100;17.068;2022-09-02T00:31:23;100647.34;;;17.98;61.16
13719;BME280;6931;51.100;17.068;2022-09-02T00:33:50;100657.41;;;17.99;61.10
13719;BME280;6931;51.100;17.068;2022-09-02T00:36:17;100659.00;;;18.00;61.15
13719;BME280;6931;51.100;17.068;2022-09-02T00:38:44;100655.75;;;17.66;62.03
13719;BME280;6931;51.100;17.068;2022-09-02T00:41:11;100647.81;;;17.77;61.44
13719;BME280;6931;51.100;17.068;2022-09-02T00:43:50;100657.59;;;17.72;61.69
13719;BME280;6931;51.100;17.068;2022-09-02T00:46:19;100660.22;;;17.63;62.74
13719;BME280;6931;51.100;17.068;2022-09-02T00:48:52;100649.88;;;17.76;62.75
13719;BME280;6931;51.100;17.068;2022-09-02T00:51:21;100659.47;;;17.79;63.01
13719;BME280;6931;51.100;17.068;2022-09-02T00:53:49;100645.88;;;17.74;62.65
13719;BME280;6931;51.100;17.068;2022-09-02T00:56:27;100653.69;;;17.66;63.73
13719;BME280;6931;51.100;17.068;2022-09-02T00:58:56;100661.31;;;17.85;63.50
13719;BME280;6931;51.100;17.068;2022-09-02T01:01:24;100644.97;;;17.61;64.10
13719;BME280;6931;51.100;17.068;2022-09-02T01:03:52;100651.81;;;17.79;63.36
13719;BME280;6931;51.100;17.068;2022-09-02T01:06:22;100655.34;;;17.44;64.11
13719;BME280;6931;51.100;17.068;2022-09-02T01:08:57;100650.41;;;17.71;62.87
13719;BME280;6931;51.100;17.068;2022-09-02T01:11:29;100651.09;;;17.16;64.17
13719;BME280;6931;51.100;17.068;2022-09-02T01:14:01;100655.78;;;17.23;64.65
13719;BME280;6931;51.100;17.068;2022-09-02T01:16:38;100655.53;;;16.94;66.15
13719;BME280;6931;51.100;17.068;2022-09-02T01:19:13;100660.34;;;17.37;64.59
13719;BME280;6931;51.100;17.068;2022-09-02T01:21:50;100656.91;;;17.49;63.81
13719;BME280;6931;51.100;17.068;2022-09-02T01:24:18;100658.50;;;17.50;63.50
13719;BME280;6931;51.100;17.068;2022-09-02T01:26:46;100657.09;;;17.58;63.16
13719;BME280;6931;51.100;17.068;2022-09-02T01:29:13;100644.53;;;17.43;63.60
13719;BME280;6931;51.100;17.068;2022-09-02T01:31:41;100655.63;;;17.30;64.13
13719;BME280;6931;51.100;17.068;2022-09-02T01:34:08;100655.63;;;17.30;64.38
13719;BME280;6931;51.100;17.068;2022-09-02T01:36:38;100656.16;;;17.45;64.06
13719;BME280;6931;51.100;17.068;2022-09-02T01:39:06;100655.31;;;17.48;63.96
13719;BME280;6931;51.100;17.068;2022-09-02T01:41:33;100646.97;;;17.41;64.04
13719;BME280;6931;51.100;17.068;2022-09-02T01:44:00;100661.75;;;17.48;63.83
13719;BME280;6931;51.100;17.068;2022-09-02T01:46:27;100663.59;;;17.15;64.91
13719;BME280;6931;51.100;17.068;2022-09-02T01:48:54;100661.13;;;17.37;63.69
13719;BME280;6931;51.100;17.068;2022-09-02T01:51:20;100661.56;;;17.36;63.99
13719;BME280;6931;51.100;17.068;2022-09-02T01:53:47;100656.44;;;17.31;64.11
13719;BME280;6931;51.100;17.068;2022-09-02T01:56:14;100660.50;;;17.30;64.51
13719;BME280;6931;51.100;17.068;2022-09-02T01:58:41;100651.16;;;17.33;64.12
13719;BME280;6931;51.100;17.068;2022-09-02T02:01:08;100649.09;;;17.37;64.78
13719;BME280;6931;51.100;17.068;2022-09-02T02:03:36;100653.91;;;17.16;65.14
13719;BME280;6931;51.100;17.068;2022-09-02T02:06:11;100655.91;;;16.50;67.57
13719;BME280;6931;51.100;17.068;2022-09-02T02:08:38;100647.56;;;16.43;67.89
13719;BME280;6931;51.100;17.068;2022-09-02T02:11:05;100650.66;;;16.52;67.76
13719;BME280;6931;51.100;17.068;2022-09-02T02:13:32;100652.72;;;16.94;66.11
13719;BME280;6931;51.100;17.068;2022-09-02T02:15:58;100646.41;;;16.87;66.67
13719;BME280;6931;51.100;17.068;2022-09-02T02:18:25;100646.34;;;16.90;66.47
13719;BME280;6931;51.100;17.068;2022-09-02T02:20:52;100649.25;;;16.87;66.30
13719;BME280;6931;51.100;17.068;2022-09-02T02:23:19;100641.47;;;16.94;65.50
13719;BME280;6931;51.100;17.068;2022-09-02T02:25:46;100652.16;;;17.03;65.31
13719;BME280;6931;51.100;17.068;2022-09-02T02:28:12;100649.78;;;17.01;65.65
13719;BME280;6931;51.100;17.068;2022-09-02T02:30:39;100651.66;;;17.08;65.48
13719;BME280;6931;51.100;17.068;2022-09-02T02:33:06;100635.91;;;16.91;65.82
13719;BME280;6931;51.100;17.068;2022-09-02T02:35:33;100648.59;;;16.99;65.80
13719;BME280;6931;51.100;17.068;2022-09-02T02:38:00;100643.16;;;17.11;65.25
13719;BME280;6931;51.100;17.068;2022-09-02T02:40:29;100645.88;;;17.15;64.96
13719;BME280;6931;51.100;17.068;2022-09-02T02:42:56;100651.09;;;17.16;64.52
13719;BME280;6931;51.100;17.068;2022-09-02T02:45:23;100650.66;;;17.18;64.80
13719;BME280;6931;51.100;17.068;2022-09-02T02:47:50;100648.22;;;16.54;66.72
13719;BME280;6931;51.100;17.068;2022-09-02T02:50:19;100644.72;;;16.93;65.57
13719;BME280;6931;51.100;17.068;2022-09-02T02:52:45;100645.41;;;16.97;66.07
13719;BME280;6931;51.100;17.068;2022-09-02T02:55:13;100644.88;;;17.05;65.40
13719;BME280;6931;51.100;17.068;2022-09-02T02:57:41;100636.06;;;17.03;65.54
13719;BME280;6931;51.100;17.068;2022-09-02T03:00:28;100647.69;;;17.05;65.67
13719;BME280;6931;51.100;17.068;2022-09-02T03:03:01;100641.56;;;17.10;65.60
13719;BME280;6931;51.100;17.068;2022-09-02T03:05:29;100650.41;;;17.09;66.00
13719;BME280;6931;51.100;17.068;2022-09-02T03:07:56;100634.75;;;17.08;66.05
13719;BME280;6931;51.100;17.068;2022-09-02T03:10:23;100646.31;;;17.13;66.25
13719;BME280;6931;51.100;17.068;2022-09-02T03:12:50;100643.94;;;16.69;68.37
13719;BME280;6931;51.100;17.068;2022-09-02T03:15:19;100645.56;;;16.44;69.45
13719;BME280;6931;51.100;17.068;2022-09-02T03:17:47;100635.34;;;16.03;71.33
13719;BME280;6931;51.100;17.068;2022-09-02T03:20:15;100634.91;;;16.09;72.15
13719;BME280;6931;51.100;17.068;2022-09-02T03:22:43;100636.41;;;15.86;73.05
13719;BME280;6931;51.100;17.068;2022-09-02T03:25:14;100635.34;;;16.03;72.63
13719;BME280;6931;51.100;17.068;2022-09-02T03:27:43;100624.97;;;16.50;70.45
13719;BME280;6931;51.100;17.068;2022-09-02T03:30:16;100630.97;;;16.52;70.33
13719;BME280;6931;51.100;17.068;2022-09-02T03:32:43;100642.09;;;16.36;71.10
13719;BME280;6931;51.100;17.068;2022-09-02T03:35:14;100635.59;;;16.39;70.08
13719;BME280;6931;51.100;17.068;2022-09-02T03:37:42;100630.06;;;16.59;69.48
13719;BME280;6931;51.100;17.068;2022-09-02T03:40:12;100630.59;;;16.73;68.78
13719;BME280;6931;51.100;17.068;2022-09-02T03:42:39;100632.47;;;16.60;69.12
13719;BME280;6931;51.100;17.068;2022-09-02T03:45:09;100637.72;;;16.58;69.38
13719;BME280;6931;51.100;17.068;2022-09-02T03:47:37;100630.16;;;16.75;68.55
13719;BME280;6931;51.100;17.068;2022-09-02T03:50:09;100639.22;;;16.40;70.17
13719;BME280;6931;51.100;17.068;2022-09-02T03:52:36;100641.13;;;15.93;72.24
13719;BME280;6931;51.100;17.068;2022-09-02T03:55:04;100637.91;;;16.44;70.30
13719;BME280;6931;51.100;17.068;2022-09-02T03:57:34;100639.59;;;16.65;69.70
13719;BME280;6931;51.100;17.068;2022-09-02T04:00:05;100649.75;;;16.82;69.69
13719;BME280;6931;51.100;17.068;2022-09-02T04:02:34;100642.47;;;16.84;69.30
13719;BME280;6931;51.100;17.068;2022-09-02T04:05:01;100644.47;;;16.84;69.64
13719;BME280;6931;51.100;17.068;2022-09-02T04:07:28;100644.66;;;16.73;69.85
13719;BME280;6931;51.100;17.068;2022-09-02T04:09:54;100648.59;;;16.79;69.58
13719;BME280;6931;51.100;17.068;2022-09-02T04:12:21;100647.84;;;16.75;69.85
13719;BME280;6931;51.100;17.068;2022-09-02T04:14:51;100648.72;;;16.72;69.55
13719;BME280;6931;51.100;17.068;2022-09-02T04:17:22;100640.09;;;16.83;69.30
13719;BME280;6931;51.100;17.068;2022-09-02T04:19:49;100645.16;;;16.91;69.27
13719;BME280;6931;51.100;17.068;2022-09-02T04:22:16;100651.91;;;16.94;69.22
13719;BME280;6931;51.100;17.068;2022-09-02T04:24:42;100647.53;;;16.93;69.46
13719;BME280;6931;51.100;17.068;2022-09-02T04:27:09;100654.72;;;16.94;69.67
13719;BME280;6931;51.100;17.068;2022-09-02T04:29:35;100657.16;;;16.49;71.40
13719;BME280;6931;51.100;17.068;2022-09-02T04:32:02;100653.47;;;16.75;70.23
13719;BME280;6931;51.100;17.068;2022-09-02T04:34:29;100653.66;;;16.88;69.69
13719;BME280;6931;51.100;17.068;2022-09-02T04:36:55;100652.00;;;16.90;69.83
13719;BME280;6931;51.100;17.068;2022-09-02T04:39:22;100655.16;;;16.92;69.43
13719;BME280;6931;51.100;17.068;2022-09-02T04:41:50;100645.50;;;16.93;69.59
13719;BME280;6931;51.100;17.068;2022-09-02T04:44:16;100652.34;;;16.92;69.38
13719;BME280;6931;51.100;17.068;2022-09-02T04:46:43;100646.34;;;16.90;69.29
13719;BME280;6931;51.100;17.068;2022-09-02T04:49:10;100652.78;;;16.91;69.25
13719;BME280;6931;51.100;17.068;2022-09-02T04:51:36;100641.97;;;16.89;69.62
13719;BME280;6931;51.100;17.068;2022-09-02T04:54:03;100644.72;;;16.70;70.17
13719;BME280;6931;51.100;17.068;2022-09-02T04:56:30;100643.47;;;16.74;70.28
13719;BME280;6931;51.100;17.068;2022-09-02T04:58:57;100648.22;;;16.77;70.16
13719;BME280;6931;51.100;17.068;2022-09-02T05:01:27;100647.78;;;16.79;70.31
13719;BME280;6931;51.100;17.068;2022-09-02T05:03:54;100648.16;;;16.81;70.13
13719;BME280;6931;51.100;17.068;2022-09-02T05:06:24;100641.72;;;16.80;70.14
13719;BME280;6931;51.100;17.068;2022-09-02T05:08:54;100652.19;;;16.80;69.88
13719;BME280;6931;51.100;17.068;2022-09-02T05:11:23;100648.59;;;16.79;69.86
13719;BME280;6931;51.100;17.068;2022-09-02T05:13:55;100655.78;;;16.80;69.96
13719;BME280;6931;51.100;17.068;2022-09-02T05:16:25;100650.16;;;16.80;69.66
13719;BME280;6931;51.100;17.068;2022-09-02T05:18:52;100662.66;;;16.79;69.87
13719;BME280;6931;51.100;17.068;2022-09-02T05:21:20;100648.72;;;16.72;70.05
13719;BME280;6931;51.100;17.068;2022-09-02T05:23:49;100653.66;;;16.65;71.13
13719;BME280;6931;51.100;17.068;2022-09-02T05:26:20;100662.22;;;16.58;71.67
13719;BME280;6931;51.100;17.068;2022-09-02T05:28:48;100648.78;;;16.69;71.08
13719;BME280;6931;51.100;17.068;2022-09-02T05:31:17;100654.34;;;16.72;71.05
13719;BME280;6931;51.100;17.068;2022-09-02T05:33:45;100645.34;;;16.58;71.75
13719;BME280;6931;51.100;17.068;2022-09-02T05:36:20;100659.25;;;16.42;73.34
13719;BME280;6931;51.100;17.068;2022-09-02T05:38:48;100646.97;;;16.05;74.19
13719;BME280;6931;51.100;17.068;2022-09-02T05:41:18;100650.00;;;16.18;74.02
13719;BME280;6931;51.100;17.068;2022-09-02T05:43:50;100649.22;;;16.41;72.66
13719;BME280;6931;51.100;17.068;2022-09-02T05:46:18;100649.63;;;16.16;72.75
13719;BME280;6931;51.100;17.068;2022-09-02T05:48:46;100633.97;;;16.15;72.54
13719;BME280;6931;51.100;17.068;2022-09-02T05:51:46;100652.59;;;15.79;73.09
13719;BME280;6931;51.100;17.068;2022-09-02T05:54:16;100648.03;;;16.15;72.27
13719;BME280;6931;51.100;17.068;2022-09-02T05:56:46;100652.47;;;16.39;71.23
13719;BME280;6931;51.100;17.068;2022-09-02T05:59:13;100659.94;;;15.99;71.34
13719;BME280;6931;51.100;17.068;2022-09-02T06:01:40;100657.94;;;16.23;70.89
13719;BME280;6931;51.100;17.068;2022-09-02T06:04:07;100654.09;;;16.14;70.87
13719;BME280;6931;51.100;17.068;2022-09-02T06:06:35;100658.75;;;15.97;71.15
13719;BME280;6931;51.100;17.068;2022-09-02T06:09:05;100655.81;;;16.04;71.08
13719;BME280;6931;51.100;17.068;2022-09-02T06:11:38;100654.75;;;16.21;70.90
13719;BME280;6931;51.100;17.068;2022-09-02T06:14:06;100660.44;;;16.18;70.96
13719;BME280;6931;51.100;17.068;2022-09-02T06:16:36;100653.34;;;16.36;70.13
13719;BME280;6931;51.100;17.068;2022-09-02T06:19:03;100652.44;;;16.16;70.65
13719;BME280;6931;51.100;17.068;2022-09-02T06:21:31;100661.34;;;16.11;71.47
13719;BME280;6931;51.100;17.068;2022-09-02T06:23:58;100653.41;;;16.06;71.39
13719;BME280;6931;51.100;17.068;2022-09-02T06:26:25;100646.00;;;16.16;70.26
13719;BME280;6931;51.100;17.068;2022-09-02T06:28:51;100658.44;;;16.18;70.73
13719;BME280;6931;51.100;17.068;2022-09-02T06:31:20;100652.09;;;16.37;70.75
13719;BME280;6931;51.100;17.068;2022-09-02T06:33:50;100655.66;;;16.41;70.54
13719;BME280;6931;51.100;17.068;2022-09-02T06:36:18;100652.63;;;16.55;70.42
13719;BME280;6931;51.100;17.068;2022-09-02T06:38:47;100650.16;;;16.57;69.06
13719;BME280;6931;51.100;17.068;2022-09-02T06:41:18;100652.56;;;16.82;68.67
13719;BME280;6931;51.100;17.068;2022-09-02T06:43:45;100645.41;;;16.54;69.03
13719;BME280;6931;51.100;17.068;2022-09-02T06:46:23;100654.28;;;16.76;68.48
13719;BME280;6931;51.100;17.068;2022-09-02T06:48:51;100649.09;;;16.74;68.14
13719;BME280;6931;51.100;17.068;2022-09-02T06:51:23;100652.22;;;16.99;67.98
13719;BME280;6931;51.100;17.068;2022-09-02T06:53:50;100654.91;;;17.06;67.29
13719;BME280;6931;51.100;17.068;2022-09-02T06:56:19;100656.91;;;17.06;67.15
13719;BME280;6931;51.100;17.068;2022-09-02T06:58:45;100652.81;;;17.30;66.86
13719;BME280;6931;51.100;17.068;2022-09-02T07:01:23;100656.81;;;17.33;67.08
13719;BME280;6931;51.100;17.068;2022-09-02T07:03:51;100658.47;;;17.10;65.95
13719;BME280;6931;51.100;17.068;2022-09-02T07:06:43;100657.69;;;17.30;65.97
13719;BME280;6931;51.100;17.068;2022-09-02T07:09:12;100656.03;;;17.52;65.03
13719;BME280;6931;51.100;17.068;2022-09-02T07:11:39;100668.81;;;17.56;64.89
13719;BME280;6931;51.100;17.068;2022-09-02T07:14:05;100660.69;;;17.39;64.48
13719;BME280;6931;51.100;17.068;2022-09-02T07:16:36;100665.03;;;17.63;64.67
13719;BME280;6931;51.100;17.068;2022-09-02T07:19:03;100669.31;;;17.71;63.77
13719;BME280;6931;51.100;17.068;2022-09-02T07:21:38;100669.91;;;17.62;63.05
13719;BME280;6931;51.100;17.068;2022-09-02T07:24:07;100665.56;;;17.58;62.62
13719;BME280;6931;51.100;17.068;2022-09-02T07:26:35;100660.72;;;17.78;62.78
13719;BME280;6931;51.100;17.068;2022-09-02T07:29:03;100664.72;;;17.96;62.62
13719;BME280;6931;51.100;17.068;2022-09-02T07:31:30;100667.84;;;17.82;61.65
13719;BME280;6931;51.100;17.068;2022-09-02T07:33:56;100673.97;;;17.97;61.61
13719;BME280;6931;51.100;17.068;2022-09-02T07:36:25;100654.69;;;17.95;60.07
13719;BME280;6931;51.100;17.068;2022-09-02T07:38:53;100654.03;;;17.88;59.02
13719;BME280;6931;51.100;17.068;2022-09-02T07:41:20;100679.09;;;18.02;59.35
13719;BME280;6931;51.100;17.068;2022-09-02T07:43:48;100670.16;;;18.23;59.43
13719;BME280;6931;51.100;17.068;2022-09-02T07:46:18;100670.84;;;18.27;59.54
13719;BME280;6931;51.100;17.068;2022-09-02T07:48:45;100667.25;;;18.26;58.20
13719;BME280;6931;51.100;17.068;2022-09-02T07:51:12;100675.63;;;18.30;58.50
13719;BME280;6931;51.100;17.068;2022-09-02T07:53:38;100663.97;;;18.28;57.93
13719;BME280;6931;51.100;17.068;2022-09-02T07:56:05;100676.22;;;18.21;56.51
13719;BME280;6931;51.100;17.068;2022-09-02T07:58:32;100675.06;;;18.19;57.28
13719;BME280;6931;51.100;17.068;2022-09-02T08:00:59;100663.69;;;18.22;56.60
13719;BME280;6931;51.100;17.068;2022-09-02T08:03:26;100662.91;;;18.38;55.74
13719;BME280;6931;51.100;17.068;2022-09-02T08:05:53;100666.06;;;18.24;56.72
13719;BME280;6931;51.100;17.068;2022-09-02T08:08:23;100666.00;;;18.27;54.67
13719;BME280;6931;51.100;17.068;2022-09-02T08:10:53;100661.25;;;18.24;55.55
13719;BME280;6931;51.100;17.068;2022-09-02T08:13:21;100665.25;;;18.43;56.31
13719;BME280;6931;51.100;17.068;2022-09-02T08:15:53;100662.25;;;18.66;56.79
13719;BME280;6931;51.100;17.068;2022-09-02T08:18:20;100655.00;;;18.65;56.13
13719;BME280;6931;51.100;17.068;2022-09-02T08:20:48;100660.34;;;18.92;57.96
13719;BME280;6931;51.100;17.068;2022-09-02T08:23:14;100664.47;;;19.03;57.14
13719;BME280;6931;51.100;17.068;2022-09-02T08:25:51;100657.63;;;18.72;54.08
13719;BME280;6931;51.100;17.068;2022-09-02T08:28:17;100663.91;;;18.80;53.28
13719;BME280;6931;51.100;17.068;2022-09-02T08:30:44;100653.16;;;19.03;54.06
13719;BME280;6931;51.100;17.068;2022-09-02T08:33:11;100656.28;;;18.93;52.11
13719;BME280;6931;51.100;17.068;2022-09-02T08:35:37;100662.00;;;19.05;52.65
13719;BME280;6931;51.100;17.068;2022-09-02T08:38:04;100664.09;;;19.17;52.93
13719;BME280;6931;51.100;17.068;2022-09-02T08:40:39;100650.88;;;19.14;51.71
13719;BME280;6931;51.100;17.068;2022-09-02T08:45:54;100675.28;;;19.37;52.60
13719;BME280;6931;51.100;17.068;2022-09-02T08:48:39;100662.56;;;19.58;53.05
13719;BME280;6931;51.100;17.068;2022-09-02T08:51:12;100665.75;;;19.60;53.18
13719;BME280;6931;51.100;17.068;2022-09-02T08:56:16;100651.75;;;19.69;54.44
13719;BME280;6931;51.100;17.068;2022-09-02T08:58:48;100650.13;;;19.68;52.98
13719;BME280;6931;51.100;17.068;2022-09-02T09:04:12;100647.28;;;19.55;49.81
13719;BME280;6931;51.100;17.068;2022-09-02T09:17:41;100640.31;;;19.85;49.15
13719;BME280;6931;51.100;17.068;2022-09-02T09:20:16;100643.84;;;19.89;46.57
13719;BME280;6931;51.100;17.068;2022-09-02T09:22:43;100640.09;;;19.67;46.84
13719;BME280;6931;51.100;17.068;2022-09-02T09:25:13;100635.56;;;19.82;47.00
13719;BME280;6931;51.100;17.068;2022-09-02T09:27:41;100641.50;;;20.00;47.00
13719;BME280;6931;51.100;17.068;2022-09-02T09:30:11;100639.47;;;20.25;48.00
13719;BME280;6931;51.100;17.068;2022-09-02T09:32:51;100632.31;;;20.46;48.38
13719;BME280;6931;51.100;17.068;2022-09-02T09:35:23;100632.66;;;20.48;45.99
13719;BME280;6931;51.100;17.068;2022-09-02T09:37:51;100643.16;;;20.60;46.56
13719;BME280;6931;51.100;17.068;2022-09-02T09:42:55;100631.63;;;20.29;45.91
13719;BME280;6931;51.100;17.068;2022-09-02T09:48:14;100633.13;;;20.46;45.46
13719;BME280;6931;51.100;17.068;2022-09-02T09:50:43;100615.69;;;20.23;45.62
13719;BME280;6931;51.100;17.068;2022-09-02T09:53:20;100614.56;;;20.20;46.51
13719;BME280;6931;51.100;17.068;2022-09-02T09:55:58;100621.63;;;20.63;46.39
13719;BME280;6931;51.100;17.068;2022-09-02T09:58:34;100614.06;;;20.60;46.60
13719;BME280;6931;51.100;17.068;2022-09-02T10:01:18;100612.81;;;20.95;46.15
13719;BME280;6931;51.100;17.068;2022-09-02T10:03:50;100603.44;;;20.85;44.31
13719;BME280;6931;51.100;17.068;2022-09-02T10:06:39;100595.72;;;20.98;44.11
13719;BME280;6931;51.100;17.068;2022-09-02T10:14:19;100596.09;;;21.09;42.77
13719;BME280;6931;51.100;17.068;2022-09-02T10:36:27;100589.88;;;22.46;42.11
13719;BME280;6931;51.100;17.068;2022-09-02T10:39:09;100585.41;;;22.18;40.10
13719;BME280;6931;51.100;17.068;2022-09-02T10:41:43;100584.34;;;21.85;40.78
13719;BME280;6931;51.100;17.068;2022-09-02T10:47:25;100583.66;;;22.20;41.38
13719;BME280;6931;51.100;17.068;2022-09-02T10:50:16;100590.63;;;21.80;41.93
13719;BME280;6931;51.100;17.068;2022-09-02T10:58:07;100587.50;;;21.65;42.77
13719;BME280;6931;51.100;17.068;2022-09-02T11:00:39;100572.38;;;21.37;42.95
13719;BME280;6931;51.100;17.068;2022-09-02T11:03:18;100586.63;;;21.03;42.41
13719;BME280;6931;51.100;17.068;2022-09-02T11:05:52;100578.94;;;21.04;41.63
13719;BME280;6931;51.100;17.068;2022-09-02T11:11:38;100584.38;;;21.20;41.60
13719;BME280;6931;51.100;17.068;2022-09-02T11:14:14;100580.38;;;21.08;41.34
13719;BME280;6931;51.100;17.068;2022-09-02T11:17:38;100577.47;;;21.21;41.65
13719;BME280;6931;51.100;17.068;2022-09-02T11:25:36;100565.16;;;20.81;41.24
13719;BME280;6931;51.100;17.068;2022-09-02T11:28:40;100569.50;;;21.28;42.52
13719;BME280;6931;51.100;17.068;2022-09-02T11:31:16;100563.53;;;21.57;44.18
13719;BME280;6931;51.100;17.068;2022-09-02T11:33:56;100562.19;;;21.71;42.80
13719;BME280;6931;51.100;17.068;2022-09-02T11:36:25;100564.38;;;21.97;42.01
13719;BME280;6931;51.100;17.068;2022-09-02T11:55:46;100551.25;;;21.60;40.59
13719;BME280;6931;51.100;17.068;2022-09-02T11:58:34;100555.44;;;22.17;40.40
13719;BME280;6931;51.100;17.068;2022-09-02T12:01:37;100556.28;;;22.53;38.11
13719;BME280;6931;51.100;17.068;2022-09-02T12:15:15;68515.09;;;-140.71;100.00
13719;BME280;6931;51.100;17.068;2022-09-02T12:23:03;68515.09;;;-140.71;100.00
13719;BME280;6931;51.100;17.068;2022-09-02T12:28:24;68515.09;;;-140.71;100.00
13719;BME280;6931;51.100;17.068;2022-09-02T12:33:36;100524.56;;;22.28;35.72
13719;BME280;6931;51.100;17.068;2022-09-02T12:36:04;100531.19;;;22.34;37.68
13719;BME280;6931;51.100;17.068;2022-09-02T12:38:36;100521.56;;;22.22;37.22
13719;BME280;6931;51.100;17.068;2022-09-02T12:46:21;100518.63;;;22.80;38.23
13719;BME280;6931;51.100;17.068;2022-09-02T12:49:04;100515.56;;;23.20;37.39
13719;BME280;6931;51.100;17.068;2022-09-02T12:51:57;100517.88;;;23.48;37.21
13719;BME280;6931;51.100;17.068;2022-09-02T12:57:09;100505.69;;;22.79;39.44
13719;BME280;6931;51.100;17.068;2022-09-02T12:59:38;100507.59;;;22.64;38.97
13719;BME280;6931;51.100;17.068;2022-09-02T13:33:21;100479.22;;;23.33;41.65
13719;BME280;6931;51.100;17.068;2022-09-02T13:35:53;100483.84;;;23.30;37.70
13719;BME280;6931;51.100;17.068;2022-09-02T13:38:27;100475.38;;;22.67;37.50
13719;BME280;6931;51.100;17.068;2022-09-02T13:40:54;100467.81;;;22.73;37.81
13719;BME280;6931;51.100;17.068;2022-09-02T13:43:23;100477.75;;;22.87;38.22
13719;BME280;6931;51.100;17.068;2022-09-02T13:45:54;100475.38;;;22.85;38.64
13719;BME280;6931;51.100;17.068;2022-09-02T13:48:32;100468.47;;;22.59;39.32
13719;BME280;6931;51.100;17.068;2022-09-02T13:51:10;100463.25;;;22.57;39.21
13719;BME280;6931;51.100;17.068;2022-09-02T13:53:42;100471.44;;;22.73;39.67
13719;BME280;6931;51.100;17.068;2022-09-02T13:56:31;100474.44;;;22.79;39.78
13719;BME280;6931;51.100;17.068;2022-09-02T13:58:58;100464.81;;;22.77;40.65
13719;BME280;6931;51.100;17.068;2022-09-02T14:01:30;100461.94;;;22.49;40.00
13719;BME280;6931;51.100;17.068;2022-09-02T14:04:03;100452.66;;;22.58;39.66
13719;BME280;6931;51.100;17.068;2022-09-02T14:06:41;100463.75;;;22.56;39.59
13719;BME280;6931;51.100;17.068;2022-09-02T14:09:20;100460.06;;;22.73;39.45
13719;BME280;6931;51.100;17.068;2022-09-02T14:11:49;100464.97;;;22.82;39.36
13719;BME280;6931;51.100;17.068;2022-09-02T14:14:23;100453.63;;;22.64;40.41
13719;BME280;6931;51.100;17.068;2022-09-02T14:16:50;100459.31;;;22.73;41.30
13719;BME280;6931;51.100;17.068;2022-09-02T14:21:52;100462.78;;;22.59;39.73
13719;BME280;6931;51.100;17.068;2022-09-02T14:24:21;100454.25;;;22.59;39.50
13719;BME280;6931;51.100;17.068;2022-09-02T14:26:51;100451.38;;;22.14;39.70
13719;BME280;6931;51.100;17.068;2022-09-02T14:29:19;100456.91;;;22.17;39.26
13719;BME280;6931;51.100;17.068;2022-09-02T14:32:09;100460.69;;;22.14;39.79
13719;BME280;6931;51.100;17.068;2022-09-02T14:34:40;100459.59;;;22.21;40.17
13719;BME280;6931;51.100;17.068;2022-09-02T14:37:27;100461.63;;;22.29;40.05
13719;BME280;6931;51.100;17.068;2022-09-02T14:40:06;100462.44;;;22.39;40.84
13719;BME280;6931;51.100;17.068;2022-09-02T14:42:50;100453.44;;;22.49;41.17
13719;BME280;6931;51.100;17.068;2022-09-02T14:45:33;100456.94;;;22.35;41.06
13719;BME280;6931;51.100;17.068;2022-09-02T14:48:18;100453.47;;;22.67;41.66
13719;BME280;6931;51.100;17.068;2022-09-02T14:50:47;100450.94;;;22.69;40.78
13719;BME280;6931;51.100;17.068;2022-09-02T14:53:19;100449.50;;;22.38;39.64
13719;BME280;6931;51.100;17.068;2022-09-02T14:55:54;100452.50;;;22.52;40.08
13719;BME280;6931;51.100;17.068;2022-09-02T14:58:24;100450.47;;;22.44;40.34
13719;BME280;6931;51.100;17.068;2022-09-02T15:00:54;100452.97;;;22.42;40.94
13719;BME280;6931;51.100;17.068;2022-09-02T15:03:22;100453.75;;;22.42;40.85
13719;BME280;6931;51.100;17.068;2022-09-02T15:05:49;100450.75;;;22.46;40.39
13719;BME280;6931;51.100;17.068;2022-09-02T15:08:17;100446.97;;;22.31;41.04
13719;BME280;6931;51.100;17.068;2022-09-02T15:10:44;100444.75;;;21.99;40.26
13719;BME280;6931;51.100;17.068;2022-09-02T15:13:13;100441.31;;;22.13;40.97
13719;BME280;6931;51.100;17.068;2022-09-02T15:15:40;100444.28;;;22.27;40.66
13719;BME280;6931;51.100;17.068;2022-09-02T15:18:07;100442.88;;;22.14;40.98
13719;BME280;6931;51.100;17.068;2022-09-02T15:20:34;100446.66;;;22.29;40.87
13719;BME280;6931;51.100;17.068;2022-09-02T15:23:01;100451.84;;;22.30;40.95
13719;BME280;6931;51.100;17.068;2022-09-02T15:25:28;100447.28;;;22.33;40.88
13719;BME280;6931;51.100;17.068;2022-09-02T15:27:55;100448.84;;;22.34;41.13
13719;BME280;6931;51.100;17.068;2022-09-02T15:30:21;100445.88;;;22.37;41.37
13719;BME280;6931;51.100;17.068;2022-09-02T15:32:48;100446.16;;;22.30;41.79
13719;BME280;6931;51.100;17.068;2022-09-02T15:35:15;100442.56;;;22.21;41.73